Time;durP1;ratioP1;P1;durP2;ratioP2;P2;SDS_P1;SDS_P2;PMS_P1;PMS_P2;Temp;Humidity;BMP_temperature;BMP_pressure;BME280_temperature;BME280_humidity;BME280_pressure;Samples;Min_cycle;Max_cycle;Signal;HPM_P1;HPM_P2
2023/05/15 00:01:34;;;;;;;12.15;9.93;;;;;;;12.24;100.00;100840.44;4905585;29;20032;-75
2023/05/15 00:03:59;;;;;;;12.13;8.77;;;;;;;12.26;100.00;100838.19;4936750;29;20047;-75
2023/05/15 00:06:26;;;;;;;18.80;11.68;;;;;;;12.24;100.00;100834.88;4937334;29;20043;-75
2023/05/15 00:08:52;;;;;;;13.48;10.18;;;;;;;12.24;100.00;100838.47;4941155;29;20063;-75
2023/05/15 00:11:17;;;;;;;14.73;9.32;;;;;;;12.25;100.00;100834.56;4941778;29;20039;-75
2023/05/15 00:13:43;;;;;;;12.07;10.02;;;;;;;12.26;100.00;100822.31;4922500;29;20031;-75
2023/05/15 00:16:08;;;;;;;11.70;9.35;;;;;;;12.25;100.00;100828.97;4924560;29;20536;-75
2023/05/15 00:18:34;;;;;;;14.00;9.43;;;;;;;12.28;100.00;100825.59;4940356;29;20032;-75
2023/05/15 00:20:59;;;;;;;13.38;9.27;;;;;;;12.25;100.00;100820.63;4924356;29;20111;-75
2023/05/15 00:23:25;;;;;;;13.85;9.65;;;;;;;12.26;100.00;100824.28;4941269;29;20042;-75
2023/05/15 00:25:51;;;;;;;13.45;9.25;;;;;;;12.28;100.00;100808.06;4940088;29;20032;-75
2023/05/15 00:28:16;;;;;;;13.88;9.85;;;;;;;12.27;100.00;100812.00;4927150;29;20156;-75
2023/05/15 00:30:42;;;;;;;14.77;9.52;;;;;;;12.26;100.00;100805.59;4892819;29;20036;-75
2023/05/15 00:33:07;;;;;;;14.18;10.02;;;;;;;12.28;100.00;100808.06;4921276;29;20031;-75
2023/05/15 00:35:33;;;;;;;14.73;10.00;;;;;;;12.28;100.00;100810.84;4905022;29;20032;-75
2023/05/15 00:37:58;;;;;;;11.18;9.48;;;;;;;12.28;100.00;100808.91;4940160;29;20027;-75
2023/05/15 00:40:24;;;;;;;15.00;11.25;;;;;;;12.23;100.00;100803.41;4924016;29;20031;-75
2023/05/15 00:42:49;;;;;;;12.15;10.80;;;;;;;12.25;100.00;100811.47;4922937;29;20062;-75
2023/05/15 00:45:15;;;;;;;14.35;10.35;;;;;;;12.26;100.00;100808.38;4907873;29;20091;-75
2023/05/15 00:47:40;;;;;;;13.77;10.00;;;;;;;12.29;100.00;100805.00;4920667;29;20035;-75
2023/05/15 00:50:07;;;;;;;14.68;10.45;;;;;;;12.29;100.00;100796.66;4904921;29;20516;-75
2023/05/15 00:52:33;;;;;;;13.10;9.98;;;;;;;12.33;100.00;100793.25;4924321;29;20064;-74
2023/05/15 00:54:59;;;;;;;13.43;9.93;;;;;;;12.32;100.00;100792.44;4923719;29;20450;-75
2023/05/15 00:57:24;;;;;;;11.48;9.25;;;;;;;12.33;100.00;100787.69;4940808;29;20101;-75
2023/05/15 00:59:51;;;;;;;12.68;9.63;;;;;;;12.33;100.00;100790.47;4939594;29;20035;-75
2023/05/15 01:02:18;;;;;;;13.77;10.80;;;;;;;12.28;100.00;100792.19;4923945;29;20598;-75
2023/05/15 01:04:43;;;;;;;12.68;9.60;;;;;;;12.29;100.00;100795.81;4923675;29;20032;-75
2023/05/15 01:07:09;;;;;;;12.88;10.38;;;;;;;12.29;100.00;100791.06;4940656;29;20028;-75
2023/05/15 01:09:34;;;;;;;12.40;9.90;;;;;;;12.30;100.00;100789.13;4920604;29;20032;-75
2023/05/15 01:11:59;;;;;;;12.90;9.45;;;;;;;12.25;100.00;100778.84;4923564;29;20038;-75
2023/05/15 01:14:26;;;;;;;10.50;9.30;;;;;;;12.24;100.00;100782.78;4939457;29;20477;-75
2023/05/15 01:16:51;;;;;;;13.43;10.27;;;;;;;12.23;100.00;100785.84;4923427;29;20032;-75
2023/05/15 01:19:17;;;;;;;14.32;10.57;;;;;;;12.23;100.00;100783.94;4919761;29;20043;-75
2023/05/15 01:22:18;;;;;;;13.43;10.75;;;;;;;12.21;100.00;100779.78;4935028;29;20394;-75
2023/05/15 01:25:08;;;;;;;16.83;11.48;;;;;;;12.19;100.00;100779.25;4924241;29;20048;-75
2023/05/15 01:27:36;;;;;;;16.35;12.63;;;;;;;12.18;100.00;100781.19;4914386;29;20032;-75
2023/05/15 01:30:17;;;;;;;17.08;11.80;;;;;;;12.20;100.00;100780.88;4923259;29;20389;-75
2023/05/15 01:32:49;;;;;;;19.55;13.23;;;;;;;12.19;100.00;100782.03;4915669;29;20110;-75
2023/05/15 01:35:17;;;;;;;19.95;14.18;;;;;;;12.19;100.00;100782.84;4922688;29;20055;-75
2023/05/15 01:37:48;;;;;;;16.90;12.82;;;;;;;12.19;100.00;100782.03;4919819;29;20043;-75
2023/05/15 01:40:14;;;;;;;19.65;13.45;;;;;;;12.20;100.00;100787.31;4923254;29;20491;-75
2023/05/15 01:42:42;;;;;;;17.45;13.48;;;;;;;12.20;100.00;100778.09;4919730;29;20027;-75
2023/05/15 01:45:08;;;;;;;22.35;14.57;;;;;;;12.19;100.00;100777.28;4935674;29;20047;-75
2023/05/15 01:47:39;;;;;;;20.08;13.57;;;;;;;12.20;100.00;100767.81;4922886;29;20035;-75
2023/05/15 01:50:05;;;;;;;19.23;13.50;;;;;;;12.21;100.00;100768.63;4922914;29;20035;-75
2023/05/15 01:52:35;;;;;;;19.08;12.85;;;;;;;12.22;100.00;100764.72;4907688;29;20487;-75
2023/05/15 01:55:01;;;;;;;18.95;13.07;;;;;;;12.23;100.00;100756.06;4894716;29;20036;-74
2023/05/15 01:57:27;;;;;;;16.15;12.20;;;;;;;12.24;100.00;100754.94;4939737;29;20484;-75
2023/05/15 01:59:52;;;;;;;16.65;12.27;;;;;;;12.25;100.00;100758.53;4922795;29;20042;-75
2023/05/15 02:02:18;;;;;;;14.80;10.95;;;;;;;12.26;100.00;100749.91;4922533;29;20028;-75
2023/05/15 02:04:43;;;;;;;18.13;12.90;;;;;;;12.27;100.00;100750.72;4922602;29;20039;-75
2023/05/15 02:07:09;;;;;;;21.73;13.57;;;;;;;12.25;100.00;100750.19;4922688;29;20070;-74
2023/05/15 02:09:34;;;;;;;17.80;12.88;;;;;;;12.26;100.00;100749.09;4938642;29;20035;-75
2023/05/15 02:12:00;;;;;;;15.77;12.50;;;;;;;12.25;100.00;100748.22;4906811;29;20028;-75
2023/05/15 02:14:27;;;;;;;19.33;13.65;;;;;;;12.28;100.00;100753.19;4919381;29;20485;-75
2023/05/15 02:16:53;;;;;;;18.85;11.52;;;;;;;12.26;100.00;100744.34;4922239;29;20027;-75
2023/05/15 02:19:18;;;;;;;16.83;11.70;;;;;;;12.29;100.00;100746.53;4919300;29;20039;-75
2023/05/15 02:21:43;;;;;;;17.40;11.88;;;;;;;12.31;100.00;100737.84;4922364;29;20476;-74
2023/05/15 02:24:09;;;;;;;18.90;11.68;;;;;;;12.32;100.00;100739.53;4939149;29;20039;-76
2023/05/15 02:27:20;;;;;;;15.70;11.43;;;;;;;12.32;100.00;100747.06;4939217;29;20035;-75
2023/05/15 02:30:06;;;;;;;14.32;10.40;;;;;;;12.33;100.00;100737.56;4911728;29;20087;-75
2023/05/15 02:33:10;;;;;;;15.57;10.57;;;;;;;12.32;100.00;100736.75;4930410;29;20043;-75
2023/05/15 02:35:51;;;;;;;14.07;10.25;;;;;;;12.34;100.00;100733.63;4938400;29;20050;-75
2023/05/15 02:38:20;;;;;;;14.18;10.13;;;;;;;12.33;100.00;100741.16;4936663;29;20400;-75
2023/05/15 02:40:46;;;;;;;14.35;10.20;;;;;;;12.32;100.00;100744.28;4922056;29;20043;-75
2023/05/15 02:43:12;;;;;;;14.02;11.38;;;;;;;12.34;100.00;100750.34;4921638;29;20028;-75
2023/05/15 02:45:38;;;;;;;15.57;11.30;;;;;;;12.30;100.00;100745.38;4905987;29;20377;-75
2023/05/15 02:48:04;;;;;;;13.95;10.82;;;;;;;12.30;100.00;100755.69;4894001;29;20028;-75
2023/05/15 02:50:29;;;;;;;13.85;10.02;;;;;;;12.29;100.00;100751.28;4937901;29;20086;-75
2023/05/15 02:53:02;;;;;;;13.88;10.27;;;;;;;12.32;100.00;100760.97;4890352;29;20032;-75
2023/05/15 02:55:28;;;;;;;11.65;9.55;;;;;;;12.32;100.00;100759.03;4902780;29;20060;-75
2023/05/15 02:57:53;;;;;;;13.15;9.93;;;;;;;12.30;100.00;100750.94;4919964;29;20032;-76
2023/05/15 03:00:19;;;;;;;11.32;9.48;;;;;;;12.29;100.00;100757.66;4934511;29;20028;-75
2023/05/15 03:02:44;;;;;;;12.60;10.10;;;;;;;12.28;100.00;100758.78;4918474;29;20028;-75
2023/05/15 03:05:10;;;;;;;12.75;9.35;;;;;;;12.26;100.00;100758.25;4887287;29;20029;-75
2023/05/15 03:07:36;;;;;;;14.52;10.20;;;;;;;12.28;100.00;100752.38;4934427;29;20040;-75
2023/05/15 03:10:01;;;;;;;15.73;11.55;;;;;;;12.23;100.00;100750.50;4919916;29;20036;-75
2023/05/15 03:12:27;;;;;;;14.85;10.68;;;;;;;12.24;100.00;100746.59;4934301;29;20036;-75
2023/05/15 03:14:52;;;;;;;14.77;10.38;;;;;;;12.23;100.00;100750.50;4919643;29;20028;-75
2023/05/15 03:17:18;;;;;;;12.20;9.65;;;;;;;12.22;100.00;100745.22;4934275;29;20044;-75
2023/05/15 03:19:43;;;;;;;12.68;10.35;;;;;;;12.23;100.00;100747.72;4919614;29;20043;-75
2023/05/15 03:22:09;;;;;;;12.32;10.30;;;;;;;12.21;100.00;100749.16;4931049;29;20110;-75
2023/05/15 03:24:34;;;;;;;13.93;11.05;;;;;;;12.20;100.00;100739.97;4909780;29;20032;-75
2023/05/15 03:27:00;;;;;;;12.57;9.93;;;;;;;12.20;100.00;100745.53;4918139;28;20455;-75
2023/05/15 03:29:25;;;;;;;12.23;9.80;;;;;;;12.20;100.00;100736.34;4929131;29;20120;-75
2023/05/15 03:31:51;;;;;;;11.43;9.52;;;;;;;12.20;100.00;100739.97;4933947;29;20109;-75
2023/05/15 03:34:16;;;;;;;11.40;8.95;;;;;;;12.19;100.00;100735.50;4919505;29;20088;-74
2023/05/15 03:36:42;;;;;;;11.45;8.93;;;;;;;12.19;100.00;100731.91;4918249;29;20035;-75
2023/05/15 03:39:07;;;;;;;12.02;9.57;;;;;;;12.16;100.00;100724.97;4918383;29;20036;-75
2023/05/15 03:41:33;;;;;;;14.45;10.20;;;;;;;12.17;100.00;100723.00;4919837;29;20375;-75
2023/05/15 03:43:58;;;;;;;11.00;9.40;;;;;;;12.16;100.00;100718.59;4937970;29;20032;-74
2023/05/15 03:46:24;;;;;;;10.82;8.95;;;;;;;12.12;100.00;100715.59;4937741;28;20055;-75
2023/05/15 03:48:49;;;;;;;10.77;8.65;;;;;;;12.10;100.00;100720.63;4937539;29;20120;-75
2023/05/15 03:51:15;;;;;;;11.38;9.43;;;;;;;12.08;100.00;100720.06;4921609;29;20036;-75
2023/05/15 03:53:40;;;;;;;10.38;8.82;;;;;;;12.02;100.00;100721.28;4921778;29;20028;-74
2023/05/15 03:56:05;;;;;;;11.10;8.73;;;;;;;12.03;100.00;100717.34;4937475;29;20052;-75
2023/05/15 03:58:31;;;;;;;11.38;8.98;;;;;;;11.97;100.00;100719.38;4921730;29;20397;-74
2023/05/15 04:00:57;;;;;;;11.18;8.65;;;;;;;11.98;100.00;100715.50;4937620;29;20060;-75
2023/05/15 04:03:22;;;;;;;11.73;9.13;;;;;;;11.94;100.00;100719.16;4934668;28;20060;-75
2023/05/15 04:05:48;;;;;;;11.98;8.50;;;;;;;11.89;100.00;100716.44;4925600;29;20096;-75
2023/05/15 04:08:14;;;;;;;10.63;8.60;;;;;;;11.90;100.00;100716.16;4937260;29;20032;-74
2023/05/15 04:10:40;;;;;;;10.25;8.60;;;;;;;11.88;100.00;100720.34;4937397;29;20450;-75
2023/05/15 04:13:06;;;;;;;10.13;8.27;;;;;;;11.82;100.00;100723.16;4921675;29;20314;-75
2023/05/15 04:15:31;;;;;;;9.85;8.57;;;;;;;11.79;100.00;100718.19;4921392;29;20063;-75
2023/05/15 04:17:57;;;;;;;12.60;9.07;;;;;;;11.77;100.00;100716.84;4937360;29;20043;-75
2023/05/15 04:20:23;;;;;;;10.00;8.50;;;;;;;11.75;100.00;100714.34;4909345;29;20036;-75
2023/05/15 04:22:49;;;;;;;12.43;8.88;;;;;;;11.73;100.00;100711.03;4937395;29;20034;-75
2023/05/15 04:25:15;;;;;;;10.32;8.48;;;;;;;11.71;100.00;100712.47;4921143;29;20115;-75
2023/05/15 04:27:40;;;;;;;10.48;8.77;;;;;;;11.67;100.00;100714.16;4921147;29;20028;-75
2023/05/15 04:30:07;;;;;;;10.13;8.52;;;;;;;11.65;100.00;100711.69;4910673;29;20028;-74
2023/05/15 04:32:33;;;;;;;12.63;8.75;;;;;;;11.61;100.00;100707.84;4933816;29;20055;-75
2023/05/15 04:35:04;;;;;;;11.85;8.82;;;;;;;11.58;100.00;100714.81;4921011;29;20024;-75
2023/05/15 04:37:30;;;;;;;10.73;8.52;;;;;;;11.59;100.00;100707.31;4920964;29;20401;-74
2023/05/15 04:39:55;;;;;;;13.20;9.35;;;;;;;11.58;100.00;100711.22;4936950;29;20040;-75
2023/05/15 04:42:21;;;;;;;12.52;8.95;;;;;;;11.59;100.00;100702.59;4917878;29;20047;-75
2023/05/15 04:44:46;;;;;;;12.88;8.60;;;;;;;11.58;100.00;100708.44;4899801;29;20043;-75
2023/05/15 04:47:12;;;;;;;10.43;8.40;;;;;;;11.58;100.00;100705.66;4920864;29;20044;-75
2023/05/15 04:49:40;;;;;;;10.63;9.00;;;;;;;11.60;100.00;100700.63;4936427;29;20047;-75
2023/05/15 04:52:05;;;;;;;10.43;8.35;;;;;;;11.60;100.00;100706.19;4920520;29;20032;-75
2023/05/15 04:54:30;;;;;;;10.40;8.60;;;;;;;11.61;100.00;100699.50;4920315;29;20028;-74
2023/05/15 04:56:56;;;;;;;11.18;8.52;;;;;;;11.59;100.00;100701.75;4920508;29;20052;-75
2023/05/15 04:59:23;;;;;;;11.48;8.57;;;;;;;11.59;100.00;100704.53;4919690;29;20397;-75
2023/05/15 05:01:49;;;;;;;10.82;8.32;;;;;;;11.58;100.00;100711.22;4920443;29;20393;-75
2023/05/15 05:04:18;;;;;;;10.23;8.60;;;;;;;11.57;100.00;100710.38;4920294;29;20044;-75
2023/05/15 05:06:46;;;;;;;10.25;8.10;;;;;;;11.57;100.00;100709.56;4936133;29;20020;-75
2023/05/15 05:09:12;;;;;;;11.30;9.48;;;;;;;11.58;100.00;100703.69;4936471;29;20028;-74
2023/05/15 05:11:43;;;;;;;11.85;8.73;;;;;;;11.58;100.00;100712.03;4936347;29;20047;-75
2023/05/15 05:14:09;;;;;;;10.68;8.85;;;;;;;11.59;100.00;100704.53;4936389;29;20413;-75
2023/05/15 05:16:35;;;;;;;10.50;8.70;;;;;;;11.58;100.00;100706.47;4920365;29;20426;-75
2023/05/15 05:19:01;;;;;;;12.02;8.68;;;;;;;11.59;100.00;100712.88;4933011;29;20033;-75
2023/05/15 05:21:26;;;;;;;11.82;8.98;;;;;;;11.62;100.00;100713.13;4920288;29;20028;-75
2023/05/15 05:23:52;;;;;;;11.75;8.77;;;;;;;11.62;100.00;100713.13;4935707;29;20024;-75
2023/05/15 05:26:17;;;;;;;12.32;9.25;;;;;;;11.64;100.00;100710.03;4920168;29;20036;-74
2023/05/15 05:28:43;;;;;;;10.68;8.65;;;;;;;11.65;100.00;100708.09;4919854;29;20024;-75
2023/05/15 05:31:08;;;;;;;9.15;7.90;;;;;;;11.68;100.00;100715.84;4935949;29;20028;-75
2023/05/15 05:33:34;;;;;;;10.00;8.63;;;;;;;11.68;100.00;100711.09;4935681;29;20024;-75
2023/05/15 05:35:59;;;;;;;12.15;8.48;;;;;;;11.73;100.00;100712.97;4932690;29;20036;-75
2023/05/15 05:38:26;;;;;;;10.68;8.23;;;;;;;11.73;100.00;100707.41;4916884;29;20497;-75
2023/05/15 05:40:52;;;;;;;10.80;8.23;;;;;;;11.78;100.00;100718.47;4935853;29;20502;-75
2023/05/15 05:43:17;;;;;;;9.77;7.85;;;;;;;11.80;100.00;100714.28;4935732;29;20055;-75
2023/05/15 05:45:43;;;;;;;8.90;7.93;;;;;;;11.83;100.00;100724.00;4935614;29;20445;-75
2023/05/15 05:48:08;;;;;;;14.13;8.40;;;;;;;11.85;100.00;100717.03;4922491;29;20039;-75
2023/05/15 05:50:34;;;;;;;9.85;7.68;;;;;;;11.88;100.00;100723.97;4935368;29;20039;-75
2023/05/15 05:52:59;;;;;;;10.52;8.60;;;;;;;11.91;100.00;100723.34;4935238;29;20047;-75
2023/05/15 05:55:25;;;;;;;8.95;7.72;;;;;;;11.94;100.00;100719.97;4925799;29;20485;-75
2023/05/15 05:57:50;;;;;;;9.98;7.85;;;;;;;11.95;100.00;100723.59;4938414;29;20031;-74
2023/05/15 06:00:16;;;;;;;10.55;7.75;;;;;;;11.99;100.00;100724.66;4922702;29;20035;-75
2023/05/15 06:02:42;;;;;;;10.82;7.93;;;;;;;12.02;100.00;100721.28;4922950;29;20032;-75
2023/05/15 06:05:07;;;;;;;10.35;7.68;;;;;;;12.05;100.00;100724.28;4906116;29;20040;-75
2023/05/15 06:07:33;;;;;;;9.75;8.07;;;;;;;12.08;100.00;100717.28;4922808;29;20031;-74
2023/05/15 06:09:59;;;;;;;9.63;7.53;;;;;;;12.12;100.00;100726.72;4938273;29;20031;-75
2023/05/15 06:12:24;;;;;;;9.02;7.40;;;;;;;12.17;100.00;100728.59;4939581;29;20444;-76
2023/05/15 06:14:50;;;;;;;9.23;7.50;;;;;;;12.20;100.00;100722.41;4938279;29;20140;-75
2023/05/15 06:17:16;;;;;;;12.23;8.63;;;;;;;12.24;100.00;100723.50;4922616;29;20464;-75
2023/05/15 06:19:41;;;;;;;12.30;7.88;;;;;;;12.25;100.00;100725.97;4934853;29;20448;-75
2023/05/15 06:22:06;;;;;;;10.88;7.65;;;;;;;12.30;100.00;100730.63;4919231;29;20047;-75
2023/05/15 06:24:32;;;;;;;10.63;8.40;;;;;;;12.34;100.00;100728.06;4941608;29;20063;-75
2023/05/15 06:26:58;;;;;;;10.32;7.13;;;;;;;12.39;100.00;100728.00;4922189;29;20099;-75
2023/05/15 06:29:24;;;;;;;10.85;7.57;;;;;;;12.43;100.00;100723.50;4939412;29;20032;-75
2023/05/15 06:31:49;;;;;;;9.98;8.65;;;;;;;12.47;100.00;100721.75;4937822;29;20099;-75
2023/05/15 06:34:15;;;;;;;8.93;7.00;;;;;;;12.53;100.00;100723.31;4939158;29;20023;-75
2023/05/15 06:36:40;;;;;;;12.35;8.38;;;;;;;12.57;100.00;100723.56;4922196;29;20027;-75
2023/05/15 06:39:09;;;;;;;11.68;8.68;;;;;;;12.60;100.00;100723.78;4922018;29;20047;-75
2023/05/15 06:41:35;;;;;;;9.88;6.82;;;;;;;12.65;100.00;100729.28;4907411;29;20034;-75
2023/05/15 06:44:00;;;;;;;8.95;7.05;;;;;;;12.69;100.00;100730.31;4906277;29;20043;-75
2023/05/15 06:46:26;;;;;;;7.22;6.53;;;;;;;12.74;100.00;100727.44;4906003;29;20028;-75
2023/05/15 06:48:51;;;;;;;8.43;6.95;;;;;;;12.79;100.00;100725.69;4938799;29;20028;-75
2023/05/15 06:51:16;;;;;;;10.23;6.55;;;;;;;12.82;100.00;100717.59;4937603;29;20036;-75
2023/05/15 06:53:42;;;;;;;10.57;7.80;;;;;;;12.88;100.00;100723.91;4938565;29;20031;-75
2023/05/15 06:56:07;;;;;;;11.55;7.55;;;;;;;12.94;100.00;100722.66;4920837;29;20055;-75
2023/05/15 06:58:33;;;;;;;12.15;7.47;;;;;;;12.99;100.00;100721.78;4906120;29;20039;-75
2023/05/15 07:01:00;;;;;;;13.27;9.55;;;;;;;13.02;100.00;100716.41;4903572;29;20404;-76
2023/05/15 07:03:25;;;;;;;11.90;7.95;;;;;;;13.07;100.00;100713.53;4938603;29;20437;-75
2023/05/15 07:05:51;;;;;;;9.40;6.40;;;;;;;13.12;100.00;100715.38;4938942;29;20086;-75
2023/05/15 07:08:17;;;;;;;15.57;9.48;;;;;;;13.17;100.00;100707.75;4938906;29;20440;-76
2023/05/15 07:10:42;;;;;;;9.40;7.85;;;;;;;13.20;100.00;100706.31;4937489;29;20044;-75
2023/05/15 07:13:08;;;;;;;9.15;7.65;;;;;;;13.26;100.00;100709.88;4921879;29;20035;-75
2023/05/15 07:15:33;;;;;;;10.82;8.30;;;;;;;13.29;100.00;100704.53;4938519;29;20043;-76
2023/05/15 07:17:59;;;;;;;10.15;7.72;;;;;;;13.33;100.00;100690.78;4941602;29;20421;-75
2023/05/15 07:20:27;;;;;;;11.38;7.10;;;;;;;13.38;100.00;100699.06;4925703;29;20488;-75
2023/05/15 07:22:57;;;;;;;10.82;8.25;;;;;;;13.44;100.00;100694.19;4925615;29;20123;-75
2023/05/15 07:25:23;;;;;;;12.70;8.45;;;;;;;13.47;100.00;100688.81;4942342;29;20038;-75
2023/05/15 07:27:48;;;;;;;8.85;7.45;;;;;;;13.51;100.00;100692.66;4941320;29;20031;-75
2023/05/15 07:30:14;;;;;;;10.85;8.25;;;;;;;13.55;100.00;100685.31;4942683;29;20330;-75
2023/05/15 07:32:40;;;;;;;14.90;10.45;;;;;;;13.62;100.00;100698.84;4941299;29;20034;-76
2023/05/15 07:35:05;;;;;;;13.57;8.52;;;;;;;13.65;100.00;100701.03;4925281;29;20032;-75
2023/05/15 07:37:31;;;;;;;12.23;8.52;;;;;;;13.71;100.00;100710.13;4924151;29;20091;-75
2023/05/15 07:39:57;;;;;;;11.43;9.07;;;;;;;13.75;100.00;100711.16;4912996;29;20031;-75
2023/05/15 07:42:22;;;;;;;12.88;8.80;;;;;;;13.78;100.00;100714.16;4922283;29;20036;-75
2023/05/15 07:44:48;;;;;;;12.18;9.43;;;;;;;13.82;100.00;100711.56;4938205;29;20027;-75
2023/05/15 07:47:14;;;;;;;15.20;10.23;;;;;;;13.84;100.00;100714.84;4940949;29;20469;-75
2023/05/15 07:49:40;;;;;;;14.45;10.45;;;;;;;13.86;100.00;100723.75;4924386;29;20044;-75
2023/05/15 07:52:05;;;;;;;11.80;9.05;;;;;;;13.88;100.00;100718.69;4941611;29;20048;-75
2023/05/15 07:54:31;;;;;;;15.68;11.57;;;;;;;13.88;100.00;100712.28;4904551;29;20496;-75
2023/05/15 07:56:57;;;;;;;15.85;10.40;;;;;;;13.87;100.00;100717.03;4925056;29;20060;-75
2023/05/15 07:59:23;;;;;;;14.38;9.45;;;;;;;13.90;100.00;100710.84;4924747;29;20032;-75
2023/05/15 08:01:48;;;;;;;11.82;9.80;;;;;;;13.92;100.00;100704.94;4921409;29;20034;-75
2023/05/15 08:04:14;;;;;;;13.20;9.82;;;;;;;13.92;100.00;100705.75;4940201;29;20490;-75
2023/05/15 08:06:41;;;;;;;15.75;10.13;;;;;;;13.93;100.00;100707.44;4924720;29;20396;-75
2023/05/15 08:09:07;;;;;;;14.20;10.40;;;;;;;13.94;100.00;100708.25;4924357;29;20396;-75
2023/05/15 08:11:32;;;;;;;9.73;8.25;;;;;;;13.96;100.00;100714.34;4924908;29;20031;-75
2023/05/15 08:13:58;;;;;;;11.07;8.60;;;;;;;13.95;100.00;100710.72;4941579;29;20477;-75
2023/05/15 08:16:23;;;;;;;15.50;10.25;;;;;;;13.96;100.00;100714.34;4908846;29;20019;-75
2023/05/15 08:18:52;;;;;;;11.15;8.25;;;;;;;13.98;100.00;100707.28;4940039;29;20400;-75
2023/05/15 08:21:17;;;;;;;10.38;7.93;;;;;;;14.02;100.00;100711.13;4940640;29;20031;-75
2023/05/15 08:23:43;;;;;;;11.40;7.28;;;;;;;14.03;100.00;100717.53;4940374;29;20040;-75
2023/05/15 08:26:08;;;;;;;9.02;7.30;;;;;;;14.06;100.00;100706.56;4940096;29;20028;-75
2023/05/15 08:28:34;;;;;;;9.93;7.15;;;;;;;14.09;100.00;100697.56;4940260;29;20477;-74
2023/05/15 08:30:59;;;;;;;12.27;8.45;;;;;;;14.12;100.00;100709.25;4936846;29;20028;-75
2023/05/15 08:33:25;;;;;;;10.25;7.10;;;;;;;14.15;100.00;100703.03;4924003;29;20039;-75
2023/05/15 08:35:51;;;;;;;10.20;7.32;;;;;;;14.19;100.00;100695.69;4941449;29;20380;-75
2023/05/15 08:38:16;;;;;;;9.90;6.38;;;;;;;14.22;100.00;100693.09;4923372;29;20035;-75
2023/05/15 08:40:45;;;;;;;9.15;6.53;;;;;;;14.26;100.00;100704.44;4924228;29;20028;-75
2023/05/15 08:43:15;;;;;;;8.48;6.22;;;;;;;14.29;100.00;100704.69;4923844;29;20672;-75
2023/05/15 08:45:40;;;;;;;8.82;6.00;;;;;;;14.35;100.00;100702.59;4924503;29;20027;-75
2023/05/15 08:48:09;;;;;;;7.68;5.82;;;;;;;14.39;100.00;100698.00;4940084;29;20083;-74
2023/05/15 08:50:35;;;;;;;8.25;5.80;;;;;;;14.46;100.00;100701.22;4939624;29;20043;-75
2023/05/15 08:53:00;;;;;;;8.88;6.82;;;;;;;14.50;100.00;100698.59;4924669;29;20396;-75
2023/05/15 08:55:27;;;;;;;6.88;6.03;;;;;;;14.52;100.00;100697.19;4917649;29;20104;-75
2023/05/15 08:57:53;;;;;;;8.57;6.20;;;;;;;14.57;100.00;100696.25;4917799;29;20048;-75
2023/05/15 09:00:20;;;;;;;8.38;5.90;;;;;;;14.59;100.00;100698.69;4920734;29;20413;-75
2023/05/15 09:02:45;;;;;;;6.63;4.63;;;;;;;14.62;100.00;100698.88;4936572;29;20047;-75
2023/05/15 09:05:11;;;;;;;6.20;4.55;;;;;;;14.66;100.00;100702.72;4904644;29;20028;-75
2023/05/15 09:07:40;;;;;;;5.75;3.97;;;;;;;14.68;100.00;100700.44;4919700;29;20040;-75
2023/05/15 09:10:06;;;;;;;4.93;4.03;;;;;;;14.69;100.00;100698.47;4936610;29;20036;-75
2023/05/15 09:12:33;;;;;;;4.70;3.60;;;;;;;14.69;100.00;100701.25;4920559;29;20036;-75
2023/05/15 09:15:16;;;;;;;5.85;3.42;;;;;;;14.71;100.00;100693.38;4936405;29;20056;-75
2023/05/15 09:17:42;;;;;;;3.88;3.38;;;;;;;14.71;100.00;100698.97;4924491;29;20048;-75
2023/05/15 09:20:27;;;;;;;3.78;3.38;;;;;;;14.70;100.00;100691.72;4936205;29;20118;-76
2023/05/15 09:22:53;;;;;;;3.55;3.15;;;;;;;14.72;100.00;100695.03;4932876;29;20043;-75
2023/05/15 09:25:37;;;;;;;3.08;2.72;;;;;;;14.71;100.00;100693.38;4919486;29;20036;-75
2023/05/15 09:28:22;;;;;;;3.42;2.85;;;;;;;14.70;100.00;100697.31;4936105;29;20544;-75
2023/05/15 09:30:48;;;;;;;4.50;2.88;;;;;;;14.71;100.00;100694.22;4907881;29;20381;-75
2023/05/15 09:33:15;;;;;;;4.78;3.20;;;;;;;14.73;100.00;100697.50;4936188;29;20043;-76
2023/05/15 09:35:41;;;;;;;5.00;3.80;;;;;;;14.72;100.00;100689.44;4932576;29;20032;-75
2023/05/15 09:38:08;;;;;;;4.25;2.92;;;;;;;14.72;100.00;100695.84;4935665;29;20032;-75
2023/05/15 09:40:33;;;;;;;4.65;3.10;;;;;;;14.74;100.00;100689.94;4920987;29;20032;-76
2023/05/15 09:42:59;;;;;;;4.25;3.45;;;;;;;14.75;100.00;100689.63;4920184;29;20043;-75
2023/05/15 09:45:25;;;;;;;3.17;2.65;;;;;;;14.78;100.00;100696.53;4919540;29;20119;-75
2023/05/15 09:47:51;;;;;;;4.53;2.50;;;;;;;14.81;100.00;100693.09;4935726;29;20063;-75
2023/05/15 09:50:25;;;;;;;4.50;3.72;;;;;;;14.83;100.00;100692.81;4935347;29;20063;-76
2023/05/15 09:52:51;;;;;;;3.80;3.20;;;;;;;14.89;100.00;100702.72;4935059;29;20118;-75
2023/05/15 09:55:18;;;;;;;3.20;2.75;;;;;;;14.93;100.00;100695.31;4935540;29;20040;-75
2023/05/15 09:57:45;;;;;;;4.88;3.50;;;;;;;14.96;100.00;100694.72;4935543;29;20035;-75
2023/05/15 10:00:12;;;;;;;3.88;2.70;;;;;;;14.98;100.00;100710.00;4918726;29;20052;-76
2023/05/15 10:02:40;;;;;;;3.75;2.80;;;;;;;15.05;100.00;100700.34;4919413;29;20036;-75
2023/05/15 10:05:06;;;;;;;4.13;3.05;;;;;;;15.09;100.00;100704.16;4920427;29;20135;-75
2023/05/15 10:07:33;;;;;;;2.95;2.25;;;;;;;15.12;100.00;100698.72;4919234;29;20036;-76
2023/05/15 10:10:00;;;;;;;2.47;2.17;;;;;;;15.16;100.00;100698.94;4919543;29;20056;-75
2023/05/15 10:12:25;;;;;;;2.53;2.08;;;;;;;15.22;100.00;100697.66;4935308;29;20040;-76
2023/05/15 10:14:51;;;;;;;2.90;1.90;;;;;;;15.27;100.00;100697.53;4919409;29;20080;-75
2023/05/15 10:17:18;;;;;;;1.98;1.55;;;;;;;15.32;100.00;100694.59;4934079;29;20040;-75
2023/05/15 10:19:44;;;;;;;2.15;1.88;;;;;;;15.42;100.00;100697.09;4920434;29;20028;-75
2023/05/15 10:22:10;;;;;;;2.10;1.73;;;;;;;15.50;100.00;100686.25;4919316;29;20060;-76
2023/05/15 10:24:35;;;;;;;2.70;2.00;;;;;;;15.61;100.00;100696.84;4920631;29;20098;-76
2023/05/15 10:27:01;;;;;;;2.53;1.60;;;;;;;15.70;100.00;100691.31;4934739;29;20043;-76
2023/05/15 10:29:26;;;;;;;2.13;1.50;;;;;;;15.81;100.00;100687.06;4929700;29;20040;-76
2023/05/15 10:31:52;;;;;;;2.47;2.08;;;;;;;15.96;100.00;100687.75;4934788;29;20103;-75
2023/05/15 10:34:17;;;;;;;2.03;1.77;;;;;;;16.04;100.00;100693.38;4918047;29;20040;-76
2023/05/15 10:36:43;;;;;;;2.80;1.50;;;;;;;16.15;100.00;100688.28;4919007;29;20039;-76
2023/05/15 10:39:09;;;;;;;1.88;1.70;;;;;;;16.25;100.00;100701.97;4934770;29;20044;-76
2023/05/15 10:41:38;;;;;;;1.65;1.55;;;;;;;16.32;100.00;100690.28;4903112;29;20069;-75
2023/05/15 10:44:03;;;;;;;3.35;1.48;;;;;;;16.36;100.00;100696.06;4934676;29;20477;-75
2023/05/15 10:46:33;;;;;;;2.90;2.40;;;;;;;16.35;100.00;100688.78;4934515;29;20040;-75
2023/05/15 10:49:02;;;;;;;2.42;1.85;;;;;;;16.31;100.00;100700.66;4918884;29;20445;-76
2023/05/15 10:51:32;;;;;;;2.47;2.10;;;;;;;16.24;100.00;100699.50;4917312;28;20617;-75
2023/05/15 10:53:59;;;;;;;3.60;2.65;;;;;;;16.19;100.00;100694.06;4919409;29;20036;-75
2023/05/15 10:56:33;;;;;;;1.98;1.70;;;;;;;16.12;100.00;100685.31;4934406;29;20564;-76
2023/05/15 10:59:09;;;;;;;2.05;1.45;;;;;;;16.02;100.00;100678.06;4934783;29;20043;-75
2023/05/15 11:01:36;;;;;;;2.35;1.67;;;;;;;15.89;100.00;100687.41;4908083;29;20063;-76
2023/05/15 11:04:14;;;;;;;1.75;1.45;;;;;;;15.74;100.00;100695.13;4918867;29;20032;-76
2023/05/15 11:06:41;;;;;;;3.05;1.20;;;;;;;15.59;100.00;100701.13;4919518;29;20436;-76
2023/05/15 11:09:35;;;;;;;2.65;1.30;;;;;;;15.48;100.00;100703.38;4933419;28;20032;-75